QFA55 PADQ-PAVD
Flight info
| Callsign | QFA55 |
|---|---|
| Flight time | 0h 49m |
| Altitude | 35000 |
| Route | ODK Q14 JOH |
| Aircraft | B738/M-SDE2E3FGHIRWXY/LB1 |
Departure
| Time | 2026-05-06 10:27 |
|---|---|
| Airport | Kodiak Airport (PADQ) |
Arrival
| Time | 2026-05-06 11:16 |
|---|---|
| Airport | Valdez Pioneer Field (PAVD) |
| Time | Latitude | Longitude | Altitude | Speed | Heading |
|---|---|---|---|---|---|
| 2026-05-06 10:14 | 57.75388 | -152.51695 | 81 ft | 0 kts | 297° |
| 2026-05-06 10:22 | 57.75390 | -152.51715 | 82 ft | 4 kts | 259° |
| 2026-05-06 10:22 | 57.75364 | -152.51702 | 82 ft | 7 kts | 114° |
| 2026-05-06 10:22 | 57.75338 | -152.51603 | 82 ft | 10 kts | 120° |
| 2026-05-06 10:23 | 57.75313 | -152.51464 | 82 ft | 11 kts | 94° |
| 2026-05-06 10:23 | 57.75311 | -152.51334 | 82 ft | 11 kts | 90° |
| 2026-05-06 10:23 | 57.75303 | -152.51256 | 82 ft | 3 kts | 154° |
| 2026-05-06 10:23 | 57.75301 | -152.51254 | 82 ft | 0 kts | 156° |
| 2026-05-06 10:24 | 57.75290 | -152.51243 | 82 ft | 9 kts | 147° |
| 2026-05-06 10:24 | 57.75228 | -152.51158 | 82 ft | 12 kts | 205° |
| 2026-05-06 10:24 | 57.75210 | -152.51320 | 82 ft | 16 kts | 272° |
| 2026-05-06 10:25 | 57.75215 | -152.51552 | 82 ft | 20 kts | 271° |
| 2026-05-06 10:25 | 57.75223 | -152.51786 | 82 ft | 15 kts | 284° |
| 2026-05-06 10:25 | 57.75215 | -152.51865 | 82 ft | 6 kts | 151° |
| 2026-05-06 10:25 | 57.75216 | -152.51810 | 82 ft | 3 kts | 93° |
| 2026-05-06 10:26 | 57.75216 | -152.51808 | 82 ft | 0 kts | 93° |
| 2026-05-06 10:26 | 57.75216 | -152.51757 | 82 ft | 17 kts | 91° |
| 2026-05-06 10:26 | 57.75204 | -152.51126 | 82 ft | 81 kts | 92° |
| 2026-05-06 10:27 | 57.75177 | -152.49695 | 82 ft | 138 kts | 92° |
| 2026-05-06 10:27 | 57.75138 | -152.47706 | 391 ft | 153 kts | 92° |
| 2026-05-06 10:27 | 57.75097 | -152.45761 | 1073 ft | 152 kts | 93° |
| 2026-05-06 10:27 | 57.75024 | -152.43666 | 1476 ft | 171 kts | 94° |
| 2026-05-06 10:28 | 57.74942 | -152.41401 | 2077 ft | 176 kts | 84° |
| 2026-05-06 10:28 | 57.75390 | -152.39169 | 2465 ft | 196 kts | 51° |
| 2026-05-06 10:28 | 57.76239 | -152.37128 | 3159 ft | 203 kts | 49° |
| 2026-05-06 10:28 | 57.77157 | -152.34882 | 3530 ft | 231 kts | 51° |
| 2026-05-06 10:29 | 57.78309 | -152.32666 | 4076 ft | 245 kts | 37° |
| 2026-05-06 10:29 | 57.79699 | -152.30647 | 4684 ft | 260 kts | 35° |
| 2026-05-06 10:29 | 57.81166 | -152.28592 | 5488 ft | 266 kts | 35° |
| 2026-05-06 10:29 | 57.82656 | -152.26467 | 6351 ft | 271 kts | 36° |
| 2026-05-06 10:30 | 57.84151 | -152.24280 | 7186 ft | 275 kts | 37° |
| 2026-05-06 10:30 | 57.85668 | -152.22037 | 8009 ft | 280 kts | 37° |
| 2026-05-06 10:30 | 57.87208 | -152.19758 | 8803 ft | 284 kts | 37° |
| 2026-05-06 10:30 | 57.88779 | -152.17439 | 9582 ft | 289 kts | 37° |
| 2026-05-06 10:31 | 57.90373 | -152.15091 | 10264 ft | 299 kts | 37° |
| 2026-05-06 10:31 | 57.92052 | -152.12619 | 10647 ft | 315 kts | 37° |
| 2026-05-06 10:31 | 57.93825 | -152.10003 | 11021 ft | 332 kts | 37° |
| 2026-05-06 10:31 | 57.95678 | -152.07260 | 11538 ft | 343 kts | 37° |
| 2026-05-06 10:32 | 57.97570 | -152.04452 | 12267 ft | 348 kts | 37° |
| 2026-05-06 10:32 | 57.99513 | -152.01565 | 13026 ft | 353 kts | 37° |
| 2026-05-06 10:32 | 58.01452 | -151.98683 | 13768 ft | 358 kts | 37° |
| 2026-05-06 10:32 | 58.03418 | -151.95759 | 14506 ft | 362 kts | 37° |
| 2026-05-06 10:33 | 58.05407 | -151.92795 | 15245 ft | 367 kts | 38° |
| 2026-05-06 10:33 | 58.07424 | -151.89785 | 15978 ft | 371 kts | 38° |
| 2026-05-06 10:33 | 58.09463 | -151.86736 | 16711 ft | 376 kts | 38° |
| 2026-05-06 10:33 | 58.11524 | -151.83652 | 17445 ft | 380 kts | 38° |
| 2026-05-06 10:34 | 58.13607 | -151.80528 | 18154 ft | 385 kts | 38° |
| 2026-05-06 10:34 | 58.15714 | -151.77364 | 18836 ft | 389 kts | 38° |
| 2026-05-06 10:34 | 58.17853 | -151.74148 | 19490 ft | 395 kts | 38° |
| 2026-05-06 10:34 | 58.20012 | -151.70894 | 20119 ft | 400 kts | 38° |
| 2026-05-06 10:35 | 58.22205 | -151.67586 | 20737 ft | 405 kts | 38° |
| 2026-05-06 10:35 | 58.24421 | -151.64238 | 21338 ft | 410 kts | 38° |
| 2026-05-06 10:35 | 58.26662 | -151.60845 | 21918 ft | 415 kts | 38° |
| 2026-05-06 10:35 | 58.28929 | -151.57407 | 22479 ft | 419 kts | 38° |
| 2026-05-06 10:36 | 58.31221 | -151.53925 | 23021 ft | 424 kts | 38° |
| 2026-05-06 10:36 | 58.33538 | -151.50401 | 23549 ft | 429 kts | 38° |
| 2026-05-06 10:36 | 58.35877 | -151.46835 | 24064 ft | 433 kts | 38° |
| 2026-05-06 10:36 | 58.38235 | -151.43236 | 24569 ft | 437 kts | 38° |
| 2026-05-06 10:37 | 58.40618 | -151.39590 | 25071 ft | 440 kts | 38° |
| 2026-05-06 10:37 | 58.43014 | -151.35920 | 25559 ft | 444 kts | 38° |
| 2026-05-06 10:37 | 58.45427 | -151.32215 | 26030 ft | 447 kts | 38° |
| 2026-05-06 10:37 | 58.47858 | -151.28477 | 26468 ft | 450 kts | 38° |
| 2026-05-06 10:38 | 58.50305 | -151.24707 | 26895 ft | 454 kts | 38° |
| 2026-05-06 10:38 | 58.52772 | -151.20899 | 27294 ft | 457 kts | 38° |
| 2026-05-06 10:38 | 58.55250 | -151.17067 | 27688 ft | 460 kts | 38° |
| 2026-05-06 10:38 | 58.57749 | -151.13196 | 28073 ft | 463 kts | 38° |
| 2026-05-06 10:39 | 58.60253 | -151.09308 | 28436 ft | 466 kts | 38° |
| 2026-05-06 10:39 | 58.62781 | -151.05377 | 28776 ft | 468 kts | 38° |
| 2026-05-06 10:39 | 58.65350 | -151.01374 | 29121 ft | 471 kts | 38° |
| 2026-05-06 10:39 | 58.67903 | -150.97388 | 29335 ft | 477 kts | 38° |
| 2026-05-06 10:40 | 58.73119 | -150.89221 | 29603 ft | 488 kts | 38° |
| 2026-05-06 10:40 | 58.75755 | -150.85080 | 29876 ft | 489 kts | 39° |
| 2026-05-06 10:40 | 58.78390 | -150.80930 | 30173 ft | 489 kts | 39° |
| 2026-05-06 10:41 | 58.81028 | -150.76771 | 30480 ft | 489 kts | 39° |
| 2026-05-06 10:41 | 58.83662 | -150.72609 | 30765 ft | 490 kts | 39° |
| 2026-05-06 10:41 | 58.86294 | -150.68442 | 31063 ft | 489 kts | 39° |
| 2026-05-06 10:41 | 58.88922 | -150.64271 | 31352 ft | 489 kts | 39° |
| 2026-05-06 10:42 | 58.91550 | -150.60092 | 31643 ft | 488 kts | 39° |
| 2026-05-06 10:42 | 58.94172 | -150.55915 | 31919 ft | 488 kts | 39° |
| 2026-05-06 10:42 | 58.96792 | -150.51734 | 32195 ft | 487 kts | 39° |
| 2026-05-06 10:42 | 58.99405 | -150.47553 | 32457 ft | 487 kts | 39° |
| 2026-05-06 10:43 | 59.02020 | -150.43362 | 32723 ft | 487 kts | 39° |
| 2026-05-06 10:43 | 59.04624 | -150.39179 | 32978 ft | 486 kts | 39° |
| 2026-05-06 10:43 | 59.07227 | -150.34990 | 33232 ft | 485 kts | 39° |
| 2026-05-06 10:44 | 59.12419 | -150.26607 | 33721 ft | 484 kts | 39° |
| 2026-05-06 10:44 | 59.15009 | -150.22415 | 33951 ft | 484 kts | 39° |
| 2026-05-06 10:44 | 59.17593 | -150.18222 | 34180 ft | 483 kts | 39° |
| 2026-05-06 10:44 | 59.20177 | -150.14021 | 34384 ft | 484 kts | 39° |
| 2026-05-06 10:45 | 59.22757 | -150.09817 | 34603 ft | 483 kts | 39° |
| 2026-05-06 10:45 | 59.25336 | -150.05607 | 34811 ft | 483 kts | 39° |
| 2026-05-06 10:45 | 59.27912 | -150.01392 | 34923 ft | 484 kts | 39° |
| 2026-05-06 10:46 | 59.33127 | -149.92836 | 34937 ft | 487 kts | 39° |
| 2026-05-06 10:46 | 59.38322 | -149.84276 | 34935 ft | 488 kts | 39° |
| 2026-05-06 10:47 | 59.43501 | -149.75706 | 34932 ft | 485 kts | 39° |
| 2026-05-06 10:47 | 59.48627 | -149.67190 | 34932 ft | 481 kts | 40° |
| 2026-05-06 10:48 | 59.53724 | -149.58686 | 34933 ft | 479 kts | 40° |
| 2026-05-06 10:48 | 59.58805 | -149.50176 | 34933 ft | 480 kts | 40° |
| 2026-05-06 10:49 | 59.63892 | -149.41619 | 34935 ft | 481 kts | 40° |
| 2026-05-06 10:49 | 59.68978 | -149.33029 | 34937 ft | 481 kts | 40° |
| 2026-05-06 10:50 | 59.74063 | -149.24405 | 34936 ft | 482 kts | 40° |
| 2026-05-06 10:50 | 59.79145 | -149.15749 | 34936 ft | 482 kts | 40° |
| 2026-05-06 10:51 | 59.83402 | -149.08468 | 34936 ft | 482 kts | 40° |
| 2026-05-06 10:51 | 59.88203 | -148.99172 | 34946 ft | 482 kts | 53° |
| 2026-05-06 10:52 | 59.91598 | -148.87689 | 34945 ft | 482 kts | 63° |
| 2026-05-06 10:52 | 59.94670 | -148.75789 | 34934 ft | 482 kts | 64° |
| 2026-05-06 10:53 | 59.97731 | -148.63892 | 34931 ft | 482 kts | 64° |
| 2026-05-06 10:53 | 59.99276 | -148.57951 | 34643 ft | 482 kts | 64° |
| 2026-05-06 10:53 | 60.00811 | -148.52031 | 34054 ft | 477 kts | 64° |
| 2026-05-06 10:53 | 60.02318 | -148.46165 | 33503 ft | 472 kts | 64° |
| 2026-05-06 10:54 | 60.03800 | -148.40358 | 32965 ft | 467 kts | 64° |
| 2026-05-06 10:54 | 60.05267 | -148.34597 | 32433 ft | 462 kts | 65° |
| 2026-05-06 10:54 | 60.06737 | -148.28816 | 31902 ft | 474 kts | 65° |
| 2026-05-06 10:54 | 60.08244 | -148.22882 | 31356 ft | 478 kts | 65° |
| 2026-05-06 10:55 | 60.09741 | -148.16990 | 30813 ft | 472 kts | 65° |
| 2026-05-06 10:55 | 60.11219 | -148.11160 | 30277 ft | 466 kts | 65° |
| 2026-05-06 10:55 | 60.12674 | -148.05389 | 29747 ft | 461 kts | 66° |
| 2026-05-06 10:55 | 60.14109 | -147.99675 | 29219 ft | 457 kts | 66° |
| 2026-05-06 10:56 | 60.15529 | -147.94007 | 28698 ft | 452 kts | 66° |
| 2026-05-06 10:56 | 60.16933 | -147.88390 | 28184 ft | 448 kts | 66° |
| 2026-05-06 10:56 | 60.18323 | -147.82822 | 27691 ft | 443 kts | 66° |
| 2026-05-06 10:56 | 60.19695 | -147.77309 | 27194 ft | 439 kts | 65° |
| 2026-05-06 10:57 | 60.21052 | -147.71843 | 26696 ft | 435 kts | 65° |
| 2026-05-06 10:57 | 60.22396 | -147.66417 | 26203 ft | 431 kts | 65° |
| 2026-05-06 10:57 | 60.23723 | -147.61042 | 25714 ft | 427 kts | 65° |
| 2026-05-06 10:57 | 60.25035 | -147.55715 | 25230 ft | 423 kts | 65° |
| 2026-05-06 10:58 | 60.26336 | -147.50425 | 24750 ft | 419 kts | 65° |
| 2026-05-06 10:58 | 60.27638 | -147.45116 | 24267 ft | 415 kts | 65° |
| 2026-05-06 10:58 | 60.28909 | -147.39918 | 23796 ft | 411 kts | 65° |
| 2026-05-06 10:58 | 60.30166 | -147.34767 | 23329 ft | 408 kts | 65° |
| 2026-05-06 10:59 | 60.31410 | -147.29659 | 22865 ft | 404 kts | 65° |
| 2026-05-06 10:59 | 60.32639 | -147.24601 | 22409 ft | 400 kts | 65° |
| 2026-05-06 10:59 | 60.33854 | -147.19589 | 21957 ft | 396 kts | 65° |
| 2026-05-06 10:59 | 60.35055 | -147.14619 | 21507 ft | 392 kts | 65° |
| 2026-05-06 11:00 | 60.36245 | -147.09689 | 21056 ft | 388 kts | 65° |
| 2026-05-06 11:00 | 60.37419 | -147.04809 | 20616 ft | 385 kts | 65° |
| 2026-05-06 11:00 | 60.38592 | -146.99926 | 20178 ft | 389 kts | 65° |
| 2026-05-06 11:00 | 60.39771 | -146.95003 | 19733 ft | 388 kts | 66° |
| 2026-05-06 11:01 | 60.40942 | -146.90108 | 19293 ft | 385 kts | 66° |
| 2026-05-06 11:01 | 60.42103 | -146.85245 | 18856 ft | 383 kts | 66° |
| 2026-05-06 11:01 | 60.43254 | -146.80408 | 18422 ft | 380 kts | 66° |
| 2026-05-06 11:01 | 60.44394 | -146.75607 | 17991 ft | 376 kts | 66° |
| 2026-05-06 11:02 | 60.45515 | -146.70866 | 17566 ft | 370 kts | 66° |
| 2026-05-06 11:02 | 60.46618 | -146.66199 | 17126 ft | 365 kts | 66° |
| 2026-05-06 11:02 | 60.48105 | -146.62046 | 16690 ft | 373 kts | 41° |
| 2026-05-06 11:02 | 60.50366 | -146.59518 | 16283 ft | 371 kts | 14° |
| 2026-05-06 11:03 | 60.52870 | -146.59217 | 15900 ft | 357 kts | 347° |
| 2026-05-06 11:03 | 60.55115 | -146.61064 | 15513 ft | 345 kts | 327° |
| 2026-05-06 11:03 | 60.57180 | -146.63506 | 15098 ft | 342 kts | 327° |
| 2026-05-06 11:03 | 60.59345 | -146.65472 | 14723 ft | 342 kts | 342° |
| 2026-05-06 11:04 | 60.61647 | -146.66694 | 14327 ft | 342 kts | 344° |
| 2026-05-06 11:04 | 60.63957 | -146.67822 | 13928 ft | 340 kts | 345° |
| 2026-05-06 11:04 | 60.66255 | -146.68914 | 13534 ft | 338 kts | 345° |
| 2026-05-06 11:04 | 60.68531 | -146.70018 | 13146 ft | 335 kts | 345° |
| 2026-05-06 11:05 | 60.70788 | -146.71153 | 12759 ft | 332 kts | 344° |
| 2026-05-06 11:05 | 60.73002 | -146.72276 | 12381 ft | 324 kts | 345° |
| 2026-05-06 11:05 | 60.75164 | -146.73357 | 12010 ft | 316 kts | 345° |
| 2026-05-06 11:05 | 60.77302 | -146.74418 | 11645 ft | 308 kts | 345° |
| 2026-05-06 11:06 | 60.79363 | -146.75446 | 11294 ft | 301 kts | 345° |
| 2026-05-06 11:06 | 60.81376 | -146.76455 | 10948 ft | 294 kts | 345° |
| 2026-05-06 11:06 | 60.83343 | -146.77445 | 10613 ft | 288 kts | 345° |
| 2026-05-06 11:06 | 60.85264 | -146.78413 | 10289 ft | 282 kts | 345° |
| 2026-05-06 11:07 | 60.87152 | -146.79364 | 9963 ft | 276 kts | 346° |
| 2026-05-06 11:07 | 60.89000 | -146.80295 | 9647 ft | 271 kts | 346° |
| 2026-05-06 11:07 | 60.90809 | -146.81208 | 9337 ft | 265 kts | 346° |
| 2026-05-06 11:07 | 60.92586 | -146.82106 | 9034 ft | 260 kts | 346° |
| 2026-05-06 11:08 | 60.94324 | -146.82986 | 8737 ft | 255 kts | 346° |
| 2026-05-06 11:08 | 60.96035 | -146.83853 | 8443 ft | 251 kts | 346° |
| 2026-05-06 11:08 | 60.97706 | -146.84701 | 8229 ft | 242 kts | 346° |
| 2026-05-06 11:08 | 60.99300 | -146.85511 | 8141 ft | 232 kts | 346° |
| 2026-05-06 11:09 | 61.00863 | -146.86304 | 8044 ft | 230 kts | 346° |
| 2026-05-06 11:09 | 61.02403 | -146.87087 | 7940 ft | 227 kts | 346° |
| 2026-05-06 11:09 | 61.03951 | -146.87266 | 7862 ft | 222 kts | 12° |
| 2026-05-06 11:09 | 61.05334 | -146.85935 | 7779 ft | 223 kts | 42° |
| 2026-05-06 11:10 | 61.06207 | -146.83308 | 7520 ft | 224 kts | 75° |
| 2026-05-06 11:10 | 61.06627 | -146.80253 | 7246 ft | 218 kts | 78° |
| 2026-05-06 11:10 | 61.06978 | -146.77280 | 6981 ft | 205 kts | 79° |
| 2026-05-06 11:10 | 61.07295 | -146.74550 | 6751 ft | 186 kts | 79° |
| 2026-05-06 11:11 | 61.07599 | -146.72000 | 6541 ft | 181 kts | 79° |
| 2026-05-06 11:11 | 61.07904 | -146.69476 | 6327 ft | 181 kts | 79° |
| 2026-05-06 11:11 | 61.08214 | -146.66922 | 6125 ft | 180 kts | 78° |
| 2026-05-06 11:11 | 61.08520 | -146.64421 | 5920 ft | 179 kts | 79° |
| 2026-05-06 11:12 | 61.08824 | -146.61916 | 5699 ft | 179 kts | 79° |
| 2026-05-06 11:12 | 61.09127 | -146.59420 | 5497 ft | 179 kts | 78° |
| 2026-05-06 11:12 | 61.09443 | -146.56805 | 4682 ft | 201 kts | 78° |
| 2026-05-06 11:12 | 61.09781 | -146.54002 | 3992 ft | 194 kts | 77° |
| 2026-05-06 11:13 | 61.10096 | -146.51397 | 3526 ft | 179 kts | 77° |
| 2026-05-06 11:13 | 61.10386 | -146.49005 | 3122 ft | 164 kts | 77° |
| 2026-05-06 11:13 | 61.10650 | -146.46819 | 2764 ft | 152 kts | 77° |
| 2026-05-06 11:13 | 61.10902 | -146.44724 | 2308 ft | 149 kts | 77° |
| 2026-05-06 11:14 | 61.11149 | -146.42656 | 1829 ft | 147 kts | 77° |
| 2026-05-06 11:14 | 61.11394 | -146.40605 | 1367 ft | 147 kts | 76° |
| 2026-05-06 11:14 | 61.11613 | -146.38536 | 1004 ft | 146 kts | 77° |
| 2026-05-06 11:14 | 61.11908 | -146.36547 | 804 ft | 146 kts | 68° |
| 2026-05-06 11:15 | 61.12344 | -146.34605 | 725 ft | 150 kts | 63° |
| 2026-05-06 11:15 | 61.12746 | -146.32630 | 603 ft | 149 kts | 72° |
| 2026-05-06 11:15 | 61.12978 | -146.30510 | 483 ft | 152 kts | 82° |
| 2026-05-06 11:15 | 61.13126 | -146.28369 | 288 ft | 149 kts | 79° |
| 2026-05-06 11:16 | 61.13289 | -146.26273 | 113 ft | 145 kts | 81° |
| 2026-05-06 11:16 | 61.13420 | -146.24517 | 84 ft | 84 kts | 81° |
| 2026-05-06 11:16 | 61.13455 | -146.23942 | 84 ft | 11 kts | 93° |
| 2026-05-06 11:16 | 61.13476 | -146.23903 | 84 ft | 5 kts | 290° |
| 2026-05-06 11:17 | 61.13466 | -146.24012 | 84 ft | 9 kts | 257° |
| 2026-05-06 11:17 | 61.13449 | -146.24161 | 84 ft | 12 kts | 258° |
| 2026-05-06 11:17 | 61.13427 | -146.24351 | 84 ft | 13 kts | 237° |
| 2026-05-06 11:17 | 61.13352 | -146.24388 | 84 ft | 12 kts | 173° |
| 2026-05-06 11:18 | 61.13270 | -146.24355 | 84 ft | 12 kts | 149° |
| 2026-05-06 11:18 | 61.13256 | -146.24184 | 84 ft | 14 kts | 78° |
| 2026-05-06 11:18 | 61.13274 | -146.23979 | 84 ft | 15 kts | 84° |
| 2026-05-06 11:18 | 61.13244 | -146.23873 | 84 ft | 7 kts | 210° |
| 2026-05-06 11:19 | 61.13230 | -146.23920 | 84 ft | 0 kts | 259° |
| 2026-05-06 11:21 | 61.13217 | -146.23915 | 84 ft | 0 kts | 169° |